sensor_id;sensor_type;location;lat;lon;timestamp;P1;durP1;ratioP1;P2;durP2;ratioP2
46365;SDS011;32073;49.166;8.076;2023-05-27T00:03:20;7.90;;;2.03;;
46365;SDS011;32073;49.166;8.076;2023-05-27T00:07:21;9.50;;;2.35;;
46365;SDS011;32073;49.166;8.076;2023-05-27T00:11:22;7.07;;;2.15;;
46365;SDS011;32073;49.166;8.076;2023-05-27T00:15:22;9.32;;;2.50;;
46365;SDS011;32073;49.166;8.076;2023-05-27T00:19:23;8.82;;;2.47;;
46365;SDS011;32073;49.166;8.076;2023-05-27T00:23:24;5.97;;;1.75;;
46365;SDS011;32073;49.166;8.076;2023-05-27T00:27:25;9.23;;;2.72;;
46365;SDS011;32073;49.166;8.076;2023-05-27T00:31:25;8.23;;;2.45;;
46365;SDS011;32073;49.166;8.076;2023-05-27T00:35:27;8.43;;;2.35;;
46365;SDS011;32073;49.166;8.076;2023-05-27T00:39:28;6.40;;;1.58;;
46365;SDS011;32073;49.166;8.076;2023-05-27T00:43:29;8.98;;;2.00;;
46365;SDS011;32073;49.166;8.076;2023-05-27T00:47:31;6.25;;;2.08;;
46365;SDS011;32073;49.166;8.076;2023-05-27T00:51:33;5.43;;;1.88;;
46365;SDS011;32073;49.166;8.076;2023-05-27T00:55:34;7.00;;;2.20;;
46365;SDS011;32073;49.166;8.076;2023-05-27T00:59:35;11.13;;;2.60;;
46365;SDS011;32073;49.166;8.076;2023-05-27T01:03:36;6.05;;;2.50;;
46365;SDS011;32073;49.166;8.076;2023-05-27T01:16:37;7.90;;;2.10;;
46365;SDS011;32073;49.166;8.076;2023-05-27T01:20:44;9.43;;;2.25;;
46365;SDS011;32073;49.166;8.076;2023-05-27T01:24:47;7.68;;;2.22;;
46365;SDS011;32073;49.166;8.076;2023-05-27T01:28:49;8.80;;;2.30;;
46365;SDS011;32073;49.166;8.076;2023-05-27T01:32:55;8.57;;;2.67;;
46365;SDS011;32073;49.166;8.076;2023-05-27T01:37:00;5.82;;;1.83;;
46365;SDS011;32073;49.166;8.076;2023-05-27T01:41:07;6.40;;;2.10;;
46365;SDS011;32073;49.166;8.076;2023-05-27T01:45:09;7.05;;;1.90;;
46365;SDS011;32073;49.166;8.076;2023-05-27T01:49:11;5.72;;;2.22;;
46365;SDS011;32073;49.166;8.076;2023-05-27T01:53:12;8.55;;;2.20;;
46365;SDS011;32073;49.166;8.076;2023-05-27T01:57:12;13.30;;;2.45;;
46365;SDS011;32073;49.166;8.076;2023-05-27T02:01:13;8.73;;;2.25;;
46365;SDS011;32073;49.166;8.076;2023-05-27T02:05:14;7.95;;;2.25;;
46365;SDS011;32073;49.166;8.076;2023-05-27T02:09:14;4.55;;;2.03;;
46365;SDS011;32073;49.166;8.076;2023-05-27T02:13:15;8.32;;;2.38;;
46365;SDS011;32073;49.166;8.076;2023-05-27T02:17:16;8.27;;;2.55;;
46365;SDS011;32073;49.166;8.076;2023-05-27T02:21:17;9.10;;;2.25;;
46365;SDS011;32073;49.166;8.076;2023-05-27T02:25:18;9.50;;;2.22;;
46365;SDS011;32073;49.166;8.076;2023-05-27T02:29:19;12.90;;;2.53;;
46365;SDS011;32073;49.166;8.076;2023-05-27T02:33:19;8.10;;;2.30;;
46365;SDS011;32073;49.166;8.076;2023-05-27T02:37:20;10.10;;;2.08;;
46365;SDS011;32073;49.166;8.076;2023-05-27T02:41:21;6.95;;;2.17;;
46365;SDS011;32073;49.166;8.076;2023-05-27T02:45:22;7.35;;;2.00;;
46365;SDS011;32073;49.166;8.076;2023-05-27T02:49:23;7.25;;;2.10;;
46365;SDS011;32073;49.166;8.076;2023-05-27T02:53:24;6.10;;;2.35;;
46365;SDS011;32073;49.166;8.076;2023-05-27T02:57:24;6.55;;;2.00;;
46365;SDS011;32073;49.166;8.076;2023-05-27T03:01:25;4.93;;;1.95;;
46365;SDS011;32073;49.166;8.076;2023-05-27T03:05:26;6.28;;;2.03;;
46365;SDS011;32073;49.166;8.076;2023-05-27T03:09:26;6.07;;;2.13;;
46365;SDS011;32073;49.166;8.076;2023-05-27T03:13:27;7.47;;;2.38;;
46365;SDS011;32073;49.166;8.076;2023-05-27T03:17:28;9.48;;;2.30;;
46365;SDS011;32073;49.166;8.076;2023-05-27T03:21:28;6.43;;;2.40;;
46365;SDS011;32073;49.166;8.076;2023-05-27T03:25:29;9.25;;;2.50;;
46365;SDS011;32073;49.166;8.076;2023-05-27T03:29:30;11.20;;;2.50;;
46365;SDS011;32073;49.166;8.076;2023-05-27T03:33:31;9.50;;;1.80;;
46365;SDS011;32073;49.166;8.076;2023-05-27T03:37:32;5.70;;;2.10;;
46365;SDS011;32073;49.166;8.076;2023-05-27T03:41:32;10.45;;;2.35;;
46365;SDS011;32073;49.166;8.076;2023-05-27T03:45:33;8.90;;;2.08;;
46365;SDS011;32073;49.166;8.076;2023-05-27T03:49:34;7.43;;;2.95;;
46365;SDS011;32073;49.166;8.076;2023-05-27T03:53:34;8.18;;;2.50;;
46365;SDS011;32073;49.166;8.076;2023-05-27T03:57:35;11.02;;;2.50;;
46365;SDS011;32073;49.166;8.076;2023-05-27T04:01:36;8.38;;;1.83;;
46365;SDS011;32073;49.166;8.076;2023-05-27T04:05:36;9.85;;;2.85;;
46365;SDS011;32073;49.166;8.076;2023-05-27T04:09:37;7.65;;;1.95;;
46365;SDS011;32073;49.166;8.076;2023-05-27T04:13:38;10.23;;;2.50;;
46365;SDS011;32073;49.166;8.076;2023-05-27T04:17:40;9.60;;;2.47;;
46365;SDS011;32073;49.166;8.076;2023-05-27T04:21:40;11.95;;;2.10;;
46365;SDS011;32073;49.166;8.076;2023-05-27T04:25:41;10.40;;;2.33;;
46365;SDS011;32073;49.166;8.076;2023-05-27T04:29:42;6.47;;;2.30;;
46365;SDS011;32073;49.166;8.076;2023-05-27T04:33:45;9.48;;;2.40;;
46365;SDS011;32073;49.166;8.076;2023-05-27T04:37:45;7.32;;;2.72;;
46365;SDS011;32073;49.166;8.076;2023-05-27T04:41:47;7.63;;;2.13;;
46365;SDS011;32073;49.166;8.076;2023-05-27T04:45:48;8.02;;;2.45;;
46365;SDS011;32073;49.166;8.076;2023-05-27T04:49:49;8.77;;;2.08;;
46365;SDS011;32073;49.166;8.076;2023-05-27T04:53:49;7.63;;;2.00;;
46365;SDS011;32073;49.166;8.076;2023-05-27T04:57:51;6.63;;;2.47;;
46365;SDS011;32073;49.166;8.076;2023-05-27T05:01:52;9.07;;;2.22;;
46365;SDS011;32073;49.166;8.076;2023-05-27T05:06:21;6.80;;;2.20;;
46365;SDS011;32073;49.166;8.076;2023-05-27T05:10:22;8.55;;;2.17;;
46365;SDS011;32073;49.166;8.076;2023-05-27T05:14:23;7.60;;;2.17;;
46365;SDS011;32073;49.166;8.076;2023-05-27T05:18:24;7.03;;;2.05;;
46365;SDS011;32073;49.166;8.076;2023-05-27T05:22:24;7.20;;;2.10;;
46365;SDS011;32073;49.166;8.076;2023-05-27T05:26:26;13.07;;;2.58;;
46365;SDS011;32073;49.166;8.076;2023-05-27T05:30:27;7.53;;;2.20;;
46365;SDS011;32073;49.166;8.076;2023-05-27T05:34:27;7.13;;;2.65;;
46365;SDS011;32073;49.166;8.076;2023-05-27T05:38:28;5.57;;;2.15;;
46365;SDS011;32073;49.166;8.076;2023-05-27T05:42:29;7.45;;;2.30;;
46365;SDS011;32073;49.166;8.076;2023-05-27T05:46:30;10.32;;;2.10;;
46365;SDS011;32073;49.166;8.076;2023-05-27T05:50:31;6.00;;;2.40;;
46365;SDS011;32073;49.166;8.076;2023-05-27T05:54:32;7.40;;;2.20;;
46365;SDS011;32073;49.166;8.076;2023-05-27T05:58:33;7.80;;;2.47;;
46365;SDS011;32073;49.166;8.076;2023-05-27T06:02:33;7.47;;;2.35;;
46365;SDS011;32073;49.166;8.076;2023-05-27T06:06:34;7.75;;;2.47;;
46365;SDS011;32073;49.166;8.076;2023-05-27T06:10:35;9.45;;;2.63;;
46365;SDS011;32073;49.166;8.076;2023-05-27T06:14:35;8.07;;;2.40;;
46365;SDS011;32073;49.166;8.076;2023-05-27T06:18:36;8.45;;;2.85;;
46365;SDS011;32073;49.166;8.076;2023-05-27T06:22:37;5.95;;;2.15;;
46365;SDS011;32073;49.166;8.076;2023-05-27T06:26:37;8.80;;;2.63;;
46365;SDS011;32073;49.166;8.076;2023-05-27T06:30:38;8.05;;;2.10;;
46365;SDS011;32073;49.166;8.076;2023-05-27T06:34:39;6.05;;;2.17;;
46365;SDS011;32073;49.166;8.076;2023-05-27T06:38:40;7.90;;;2.47;;
46365;SDS011;32073;49.166;8.076;2023-05-27T06:42:40;10.40;;;2.83;;
46365;SDS011;32073;49.166;8.076;2023-05-27T06:46:43;6.38;;;2.00;;
46365;SDS011;32073;49.166;8.076;2023-05-27T06:50:44;13.68;;;2.40;;
46365;SDS011;32073;49.166;8.076;2023-05-27T06:54:44;7.20;;;2.38;;
46365;SDS011;32073;49.166;8.076;2023-05-27T06:58:46;9.25;;;2.35;;
46365;SDS011;32073;49.166;8.076;2023-05-27T07:02:47;9.95;;;2.50;;
46365;SDS011;32073;49.166;8.076;2023-05-27T07:06:48;9.63;;;2.85;;
46365;SDS011;32073;49.166;8.076;2023-05-27T07:10:48;8.93;;;2.25;;
46365;SDS011;32073;49.166;8.076;2023-05-27T07:14:49;9.30;;;2.30;;
46365;SDS011;32073;49.166;8.076;2023-05-27T07:18:50;9.13;;;2.28;;
46365;SDS011;32073;49.166;8.076;2023-05-27T07:22:50;8.60;;;2.08;;
46365;SDS011;32073;49.166;8.076;2023-05-27T07:26:51;8.02;;;2.35;;
46365;SDS011;32073;49.166;8.076;2023-05-27T07:30:52;8.38;;;2.28;;
46365;SDS011;32073;49.166;8.076;2023-05-27T07:34:52;10.77;;;2.63;;
46365;SDS011;32073;49.166;8.076;2023-05-27T07:38:53;6.72;;;2.30;;
46365;SDS011;32073;49.166;8.076;2023-05-27T07:42:54;10.55;;;2.30;;
46365;SDS011;32073;49.166;8.076;2023-05-27T07:46:54;8.50;;;2.15;;
46365;SDS011;32073;49.166;8.076;2023-05-27T07:50:55;5.45;;;2.22;;
46365;SDS011;32073;49.166;8.076;2023-05-27T07:54:56;8.73;;;2.63;;
46365;SDS011;32073;49.166;8.076;2023-05-27T07:58:57;9.20;;;2.65;;
46365;SDS011;32073;49.166;8.076;2023-05-27T08:02:58;7.68;;;2.60;;
46365;SDS011;32073;49.166;8.076;2023-05-27T08:06:58;9.88;;;2.58;;
46365;SDS011;32073;49.166;8.076;2023-05-27T08:10:59;7.28;;;2.20;;
46365;SDS011;32073;49.166;8.076;2023-05-27T08:15:00;8.38;;;2.40;;
46365;SDS011;32073;49.166;8.076;2023-05-27T08:19:00;9.30;;;2.50;;
46365;SDS011;32073;49.166;8.076;2023-05-27T08:23:01;9.23;;;2.70;;
46365;SDS011;32073;49.166;8.076;2023-05-27T08:27:02;11.13;;;2.92;;
46365;SDS011;32073;49.166;8.076;2023-05-27T08:31:05;13.98;;;2.70;;
46365;SDS011;32073;49.166;8.076;2023-05-27T08:35:06;8.07;;;2.58;;
46365;SDS011;32073;49.166;8.076;2023-05-27T08:39:07;9.20;;;2.55;;
46365;SDS011;32073;49.166;8.076;2023-05-27T08:43:07;10.43;;;3.15;;
46365;SDS011;32073;49.166;8.076;2023-05-27T08:47:08;10.00;;;2.97;;
46365;SDS011;32073;49.166;8.076;2023-05-27T08:51:09;7.82;;;2.90;;
46365;SDS011;32073;49.166;8.076;2023-05-27T08:55:11;9.05;;;3.03;;
46365;SDS011;32073;49.166;8.076;2023-05-27T08:59:17;11.05;;;2.63;;
46365;SDS011;32073;49.166;8.076;2023-05-27T09:03:18;11.02;;;3.00;;
46365;SDS011;32073;49.166;8.076;2023-05-27T09:07:19;8.73;;;2.58;;
46365;SDS011;32073;49.166;8.076;2023-05-27T09:11:22;15.68;;;3.80;;
46365;SDS011;32073;49.166;8.076;2023-05-27T09:15:28;12.23;;;3.92;;
46365;SDS011;32073;49.166;8.076;2023-05-27T09:19:31;12.77;;;3.03;;
46365;SDS011;32073;49.166;8.076;2023-05-27T09:23:36;8.73;;;3.17;;
46365;SDS011;32073;49.166;8.076;2023-05-27T09:27:42;9.55;;;3.03;;
46365;SDS011;32073;49.166;8.076;2023-05-27T09:31:44;11.57;;;3.22;;
46365;SDS011;32073;49.166;8.076;2023-05-27T09:35:45;10.18;;;2.95;;
46365;SDS011;32073;49.166;8.076;2023-05-27T09:39:46;14.07;;;3.30;;
46365;SDS011;32073;49.166;8.076;2023-05-27T09:43:53;10.13;;;3.40;;
46365;SDS011;32073;49.166;8.076;2023-05-27T09:47:55;12.57;;;2.92;;
46365;SDS011;32073;49.166;8.076;2023-05-27T09:51:58;13.15;;;3.30;;
46365;SDS011;32073;49.166;8.076;2023-05-27T09:56:01;9.57;;;2.75;;
46365;SDS011;32073;49.166;8.076;2023-05-27T10:00:03;9.75;;;3.05;;
46365;SDS011;32073;49.166;8.076;2023-05-27T10:04:13;9.80;;;3.10;;
46365;SDS011;32073;49.166;8.076;2023-05-27T10:08:16;8.50;;;2.95;;
46365;SDS011;32073;49.166;8.076;2023-05-27T10:12:20;10.00;;;3.17;;
46365;SDS011;32073;49.166;8.076;2023-05-27T10:16:22;13.07;;;3.40;;
46365;SDS011;32073;49.166;8.076;2023-05-27T10:20:30;9.50;;;3.08;;
46365;SDS011;32073;49.166;8.076;2023-05-27T10:24:39;5.47;;;2.58;;
46365;SDS011;32073;49.166;8.076;2023-05-27T10:28:41;8.43;;;3.05;;
46365;SDS011;32073;49.166;8.076;2023-05-27T10:32:42;8.65;;;3.13;;
46365;SDS011;32073;49.166;8.076;2023-05-27T10:36:57;7.63;;;2.78;;
46365;SDS011;32073;49.166;8.076;2023-05-27T10:41:00;7.18;;;2.63;;
46365;SDS011;32073;49.166;8.076;2023-05-27T10:45:03;7.65;;;2.88;;
46365;SDS011;32073;49.166;8.076;2023-05-27T10:49:10;9.70;;;3.25;;
46365;SDS011;32073;49.166;8.076;2023-05-27T10:53:16;7.68;;;3.03;;
46365;SDS011;32073;49.166;8.076;2023-05-27T10:57:20;7.45;;;3.42;;
46365;SDS011;32073;49.166;8.076;2023-05-27T11:01:22;7.68;;;2.88;;
46365;SDS011;32073;49.166;8.076;2023-05-27T11:05:28;7.78;;;2.72;;
46365;SDS011;32073;49.166;8.076;2023-05-27T11:09:51;8.27;;;3.38;;
46365;SDS011;32073;49.166;8.076;2023-05-27T11:13:55;9.45;;;3.05;;
46365;SDS011;32073;49.166;8.076;2023-05-27T11:18:00;9.48;;;3.75;;
46365;SDS011;32073;49.166;8.076;2023-05-27T11:22:02;7.25;;;3.10;;
46365;SDS011;32073;49.166;8.076;2023-05-27T11:26:03;13.23;;;3.25;;
46365;SDS011;32073;49.166;8.076;2023-05-27T11:30:10;10.93;;;3.15;;
46365;SDS011;32073;49.166;8.076;2023-05-27T11:34:13;8.20;;;3.17;;
46365;SDS011;32073;49.166;8.076;2023-05-27T11:38:16;9.73;;;3.60;;
46365;SDS011;32073;49.166;8.076;2023-05-27T11:42:22;7.40;;;3.05;;
46365;SDS011;32073;49.166;8.076;2023-05-27T11:46:24;9.40;;;3.20;;
46365;SDS011;32073;49.166;8.076;2023-05-27T11:50:37;6.55;;;3.28;;
46365;SDS011;32073;49.166;8.076;2023-05-27T11:54:38;6.70;;;3.15;;
46365;SDS011;32073;49.166;8.076;2023-05-27T11:58:39;8.25;;;3.28;;
46365;SDS011;32073;49.166;8.076;2023-05-27T12:02:40;6.50;;;3.25;;
46365;SDS011;32073;49.166;8.076;2023-05-27T12:06:42;9.70;;;3.25;;
46365;SDS011;32073;49.166;8.076;2023-05-27T12:10:44;6.13;;;3.20;;
46365;SDS011;32073;49.166;8.076;2023-05-27T12:14:46;7.38;;;3.00;;
46365;SDS011;32073;49.166;8.076;2023-05-27T12:18:47;7.15;;;3.38;;
46365;SDS011;32073;49.166;8.076;2023-05-27T12:22:47;8.43;;;3.45;;
46365;SDS011;32073;49.166;8.076;2023-05-27T12:26:48;6.75;;;3.28;;
46365;SDS011;32073;49.166;8.076;2023-05-27T12:30:48;6.45;;;3.30;;
46365;SDS011;32073;49.166;8.076;2023-05-27T12:34:49;7.20;;;3.30;;
46365;SDS011;32073;49.166;8.076;2023-05-27T12:38:50;8.32;;;3.30;;
46365;SDS011;32073;49.166;8.076;2023-05-27T12:42:50;6.90;;;3.20;;
46365;SDS011;32073;49.166;8.076;2023-05-27T12:46:51;5.90;;;3.30;;
46365;SDS011;32073;49.166;8.076;2023-05-27T12:50:52;6.78;;;3.08;;
46365;SDS011;32073;49.166;8.076;2023-05-27T12:54:52;7.05;;;2.80;;
46365;SDS011;32073;49.166;8.076;2023-05-27T12:58:53;8.60;;;3.53;;
46365;SDS011;32073;49.166;8.076;2023-05-27T13:02:55;5.97;;;2.78;;
46365;SDS011;32073;49.166;8.076;2023-05-27T13:06:56;7.03;;;3.30;;
46365;SDS011;32073;49.166;8.076;2023-05-27T13:10:57;6.20;;;2.88;;
46365;SDS011;32073;49.166;8.076;2023-05-27T13:14:58;8.55;;;3.10;;
46365;SDS011;32073;49.166;8.076;2023-05-27T13:19:01;5.68;;;3.20;;
46365;SDS011;32073;49.166;8.076;2023-05-27T13:23:03;9.25;;;3.63;;
46365;SDS011;32073;49.166;8.076;2023-05-27T13:27:04;5.88;;;2.80;;
46365;SDS011;32073;49.166;8.076;2023-05-27T13:31:04;4.82;;;2.80;;
46365;SDS011;32073;49.166;8.076;2023-05-27T13:35:05;9.05;;;3.25;;
46365;SDS011;32073;49.166;8.076;2023-05-27T13:39:06;8.23;;;3.15;;
46365;SDS011;32073;49.166;8.076;2023-05-27T13:43:07;5.68;;;3.00;;
46365;SDS011;32073;49.166;8.076;2023-05-27T13:47:08;5.95;;;2.60;;
46365;SDS011;32073;49.166;8.076;2023-05-27T13:51:09;8.57;;;3.13;;
46365;SDS011;32073;49.166;8.076;2023-05-27T13:55:09;6.45;;;3.00;;
46365;SDS011;32073;49.166;8.076;2023-05-27T13:59:10;7.63;;;3.03;;
46365;SDS011;32073;49.166;8.076;2023-05-27T14:03:12;7.07;;;2.85;;
46365;SDS011;32073;49.166;8.076;2023-05-27T14:07:13;6.30;;;3.15;;
46365;SDS011;32073;49.166;8.076;2023-05-27T14:11:13;11.60;;;2.60;;
46365;SDS011;32073;49.166;8.076;2023-05-27T14:15:14;5.82;;;2.63;;
46365;SDS011;32073;49.166;8.076;2023-05-27T14:19:15;7.93;;;3.25;;
46365;SDS011;32073;49.166;8.076;2023-05-27T14:23:16;3.50;;;2.55;;
46365;SDS011;32073;49.166;8.076;2023-05-27T14:27:17;7.25;;;3.17;;
46365;SDS011;32073;49.166;8.076;2023-05-27T14:31:18;5.65;;;2.80;;
46365;SDS011;32073;49.166;8.076;2023-05-27T14:35:18;6.15;;;2.80;;
46365;SDS011;32073;49.166;8.076;2023-05-27T14:39:19;7.10;;;3.08;;
46365;SDS011;32073;49.166;8.076;2023-05-27T14:43:20;6.30;;;2.88;;
46365;SDS011;32073;49.166;8.076;2023-05-27T14:47:21;6.20;;;2.70;;
46365;SDS011;32073;49.166;8.076;2023-05-27T14:51:22;7.50;;;2.55;;
46365;SDS011;32073;49.166;8.076;2023-05-27T14:55:22;5.68;;;2.53;;
46365;SDS011;32073;49.166;8.076;2023-05-27T14:59:23;8.18;;;3.13;;
46365;SDS011;32073;49.166;8.076;2023-05-27T15:03:24;7.32;;;2.58;;
46365;SDS011;32073;49.166;8.076;2023-05-27T15:07:24;5.53;;;2.83;;
46365;SDS011;32073;49.166;8.076;2023-05-27T15:11:25;4.68;;;2.72;;
46365;SDS011;32073;49.166;8.076;2023-05-27T15:15:26;6.50;;;2.55;;
46365;SDS011;32073;49.166;8.076;2023-05-27T15:19:27;5.22;;;2.75;;
46365;SDS011;32073;49.166;8.076;2023-05-27T15:23:27;6.07;;;2.45;;
46365;SDS011;32073;49.166;8.076;2023-05-27T15:27:28;7.07;;;2.70;;
46365;SDS011;32073;49.166;8.076;2023-05-27T15:31:29;7.93;;;2.35;;
46365;SDS011;32073;49.166;8.076;2023-05-27T15:35:29;7.97;;;2.42;;
46365;SDS011;32073;49.166;8.076;2023-05-27T15:39:30;6.40;;;2.25;;
46365;SDS011;32073;49.166;8.076;2023-05-27T15:43:31;6.90;;;2.85;;
46365;SDS011;32073;49.166;8.076;2023-05-27T15:47:32;9.15;;;2.92;;
46365;SDS011;32073;49.166;8.076;2023-05-27T15:51:32;5.43;;;2.60;;
46365;SDS011;32073;49.166;8.076;2023-05-27T15:55:33;4.53;;;2.00;;
46365;SDS011;32073;49.166;8.076;2023-05-27T15:59:37;5.85;;;2.58;;
46365;SDS011;32073;49.166;8.076;2023-05-27T16:03:38;7.15;;;2.03;;
46365;SDS011;32073;49.166;8.076;2023-05-27T16:07:42;4.53;;;1.90;;
46365;SDS011;32073;49.166;8.076;2023-05-27T16:11:43;5.82;;;2.25;;
46365;SDS011;32073;49.166;8.076;2023-05-27T16:15:44;4.60;;;2.08;;
46365;SDS011;32073;49.166;8.076;2023-05-27T16:19:47;4.78;;;1.95;;
46365;SDS011;32073;49.166;8.076;2023-05-27T16:23:47;4.50;;;1.80;;
46365;SDS011;32073;49.166;8.076;2023-05-27T16:27:48;6.95;;;2.22;;
46365;SDS011;32073;49.166;8.076;2023-05-27T16:31:49;4.57;;;2.10;;
46365;SDS011;32073;49.166;8.076;2023-05-27T16:35:49;3.00;;;1.52;;
46365;SDS011;32073;49.166;8.076;2023-05-27T16:39:50;3.83;;;1.92;;
46365;SDS011;32073;49.166;8.076;2023-05-27T16:43:50;4.07;;;1.83;;
46365;SDS011;32073;49.166;8.076;2023-05-27T16:47:51;3.90;;;1.67;;
46365;SDS011;32073;49.166;8.076;2023-05-27T16:51:54;4.25;;;1.75;;
46365;SDS011;32073;49.166;8.076;2023-05-27T16:55:55;4.93;;;1.95;;
46365;SDS011;32073;49.166;8.076;2023-05-27T16:59:55;4.40;;;1.58;;
46365;SDS011;32073;49.166;8.076;2023-05-27T17:03:56;4.05;;;1.73;;
46365;SDS011;32073;49.166;8.076;2023-05-27T17:07:57;2.13;;;1.23;;
46365;SDS011;32073;49.166;8.076;2023-05-27T17:11:57;5.57;;;1.52;;
46365;SDS011;32073;49.166;8.076;2023-05-27T17:15:58;2.85;;;1.40;;
46365;SDS011;32073;49.166;8.076;2023-05-27T17:20:00;2.97;;;1.75;;
46365;SDS011;32073;49.166;8.076;2023-05-27T17:24:00;4.55;;;2.22;;
46365;SDS011;32073;49.166;8.076;2023-05-27T17:28:01;5.13;;;2.92;;
46365;SDS011;32073;49.166;8.076;2023-05-27T17:32:02;5.20;;;2.42;;
46365;SDS011;32073;49.166;8.076;2023-05-27T17:36:04;4.05;;;1.80;;
46365;SDS011;32073;49.166;8.076;2023-05-27T17:40:05;4.38;;;1.80;;
46365;SDS011;32073;49.166;8.076;2023-05-27T17:44:09;5.57;;;1.83;;
46365;SDS011;32073;49.166;8.076;2023-05-27T17:48:09;6.35;;;2.60;;
46365;SDS011;32073;49.166;8.076;2023-05-27T17:52:12;7.75;;;2.22;;
46365;SDS011;32073;49.166;8.076;2023-05-27T17:56:14;3.88;;;1.92;;
46365;SDS011;32073;49.166;8.076;2023-05-27T18:00:15;3.42;;;1.73;;
46365;SDS011;32073;49.166;8.076;2023-05-27T18:04:16;3.58;;;1.63;;
46365;SDS011;32073;49.166;8.076;2023-05-27T18:08:16;3.47;;;1.60;;
46365;SDS011;32073;49.166;8.076;2023-05-27T18:12:17;5.18;;;2.10;;
46365;SDS011;32073;49.166;8.076;2023-05-27T18:16:18;4.75;;;2.00;;
46365;SDS011;32073;49.166;8.076;2023-05-27T18:20:18;7.40;;;4.40;;
46365;SDS011;32073;49.166;8.076;2023-05-27T18:24:20;6.47;;;3.70;;
46365;SDS011;32073;49.166;8.076;2023-05-27T18:28:22;5.95;;;2.20;;
46365;SDS011;32073;49.166;8.076;2023-05-27T18:32:23;3.65;;;2.03;;
46365;SDS011;32073;49.166;8.076;2023-05-27T18:36:24;6.15;;;2.00;;
46365;SDS011;32073;49.166;8.076;2023-05-27T18:40:24;2.60;;;1.40;;
46365;SDS011;32073;49.166;8.076;2023-05-27T18:44:26;4.18;;;1.95;;
46365;SDS011;32073;49.166;8.076;2023-05-27T18:48:27;5.25;;;1.70;;
46365;SDS011;32073;49.166;8.076;2023-05-27T18:52:28;12.00;;;2.08;;
46365;SDS011;32073;49.166;8.076;2023-05-27T18:56:29;4.35;;;2.00;;
46365;SDS011;32073;49.166;8.076;2023-05-27T19:00:29;5.38;;;1.77;;
46365;SDS011;32073;49.166;8.076;2023-05-27T19:04:30;5.32;;;2.00;;
46365;SDS011;32073;49.166;8.076;2023-05-27T19:08:30;4.57;;;1.83;;
46365;SDS011;32073;49.166;8.076;2023-05-27T19:12:31;2.65;;;1.70;;
46365;SDS011;32073;49.166;8.076;2023-05-27T19:16:32;5.30;;;2.10;;
46365;SDS011;32073;49.166;8.076;2023-05-27T19:20:32;3.50;;;1.90;;
46365;SDS011;32073;49.166;8.076;2023-05-27T19:24:33;2.67;;;1.58;;
46365;SDS011;32073;49.166;8.076;2023-05-27T19:28:34;5.03;;;2.00;;
46365;SDS011;32073;49.166;8.076;2023-05-27T19:32:34;3.88;;;2.03;;
46365;SDS011;32073;49.166;8.076;2023-05-27T19:36:35;7.72;;;1.88;;
46365;SDS011;32073;49.166;8.076;2023-05-27T19:40:36;3.92;;;1.95;;
46365;SDS011;32073;49.166;8.076;2023-05-27T19:44:36;4.43;;;2.22;;
46365;SDS011;32073;49.166;8.076;2023-05-27T19:48:37;5.38;;;2.15;;
46365;SDS011;32073;49.166;8.076;2023-05-27T19:52:38;5.95;;;1.77;;
46365;SDS011;32073;49.166;8.076;2023-05-27T19:56:40;4.55;;;2.30;;
46365;SDS011;32073;49.166;8.076;2023-05-27T20:00:40;5.90;;;2.38;;
46365;SDS011;32073;49.166;8.076;2023-05-27T20:04:41;5.75;;;2.30;;
46365;SDS011;32073;49.166;8.076;2023-05-27T20:08:42;6.53;;;2.63;;
46365;SDS011;32073;49.166;8.076;2023-05-27T20:12:43;6.68;;;2.40;;
46365;SDS011;32073;49.166;8.076;2023-05-27T20:16:45;5.82;;;2.08;;
46365;SDS011;32073;49.166;8.076;2023-05-27T20:20:46;8.05;;;3.65;;
46365;SDS011;32073;49.166;8.076;2023-05-27T20:24:46;23.63;;;13.90;;
46365;SDS011;32073;49.166;8.076;2023-05-27T20:28:47;38.67;;;20.27;;
46365;SDS011;32073;49.166;8.076;2023-05-27T20:32:51;21.52;;;12.30;;
46365;SDS011;32073;49.166;8.076;2023-05-27T20:36:52;11.88;;;5.47;;
46365;SDS011;32073;49.166;8.076;2023-05-27T20:40:53;9.75;;;3.92;;
46365;SDS011;32073;49.166;8.076;2023-05-27T20:44:54;5.25;;;3.22;;
46365;SDS011;32073;49.166;8.076;2023-05-27T20:48:55;7.15;;;3.70;;
46365;SDS011;32073;49.166;8.076;2023-05-27T20:52:56;6.20;;;3.10;;
46365;SDS011;32073;49.166;8.076;2023-05-27T20:56:56;7.93;;;3.00;;
46365;SDS011;32073;49.166;8.076;2023-05-27T21:00:57;6.72;;;3.20;;
46365;SDS011;32073;49.166;8.076;2023-05-27T21:04:57;6.63;;;2.97;;
46365;SDS011;32073;49.166;8.076;2023-05-27T21:09:00;5.40;;;2.35;;
46365;SDS011;32073;49.166;8.076;2023-05-27T21:13:00;8.88;;;3.47;;
46365;SDS011;32073;49.166;8.076;2023-05-27T21:17:01;4.50;;;2.33;;
46365;SDS011;32073;49.166;8.076;2023-05-27T21:21:04;9.77;;;4.13;;
46365;SDS011;32073;49.166;8.076;2023-05-27T21:25:10;8.05;;;4.30;;
46365;SDS011;32073;49.166;8.076;2023-05-27T21:29:11;9.00;;;3.42;;
46365;SDS011;32073;49.166;8.076;2023-05-27T21:33:12;9.02;;;4.00;;
46365;SDS011;32073;49.166;8.076;2023-05-27T21:37:13;9.13;;;3.70;;
46365;SDS011;32073;49.166;8.076;2023-05-27T21:41:14;9.05;;;3.78;;
46365;SDS011;32073;49.166;8.076;2023-05-27T21:45:14;8.18;;;3.35;;
46365;SDS011;32073;49.166;8.076;2023-05-27T21:49:15;7.97;;;2.92;;
46365;SDS011;32073;49.166;8.076;2023-05-27T21:53:16;13.02;;;5.22;;
46365;SDS011;32073;49.166;8.076;2023-05-27T21:57:16;7.82;;;3.33;;
46365;SDS011;32073;49.166;8.076;2023-05-27T22:01:17;9.07;;;3.70;;
46365;SDS011;32073;49.166;8.076;2023-05-27T22:05:18;7.15;;;3.10;;
46365;SDS011;32073;49.166;8.076;2023-05-27T22:09:18;11.88;;;4.68;;
46365;SDS011;32073;49.166;8.076;2023-05-27T22:13:19;9.25;;;3.70;;
46365;SDS011;32073;49.166;8.076;2023-05-27T22:17:20;8.98;;;3.42;;
46365;SDS011;32073;49.166;8.076;2023-05-27T22:21:21;8.60;;;3.42;;
46365;SDS011;32073;49.166;8.076;2023-05-27T22:25:21;9.57;;;3.30;;
46365;SDS011;32073;49.166;8.076;2023-05-27T22:29:23;9.52;;;3.22;;
46365;SDS011;32073;49.166;8.076;2023-05-27T22:33:25;5.88;;;2.35;;
46365;SDS011;32073;49.166;8.076;2023-05-27T22:37:28;5.40;;;2.33;;
46365;SDS011;32073;49.166;8.076;2023-05-27T22:41:29;6.40;;;2.10;;
46365;SDS011;32073;49.166;8.076;2023-05-27T22:45:29;6.03;;;2.30;;
46365;SDS011;32073;49.166;8.076;2023-05-27T22:49:30;6.13;;;2.47;;
46365;SDS011;32073;49.166;8.076;2023-05-27T22:53:33;4.70;;;2.20;;
46365;SDS011;32073;49.166;8.076;2023-05-27T22:57:35;7.63;;;2.47;;
46365;SDS011;32073;49.166;8.076;2023-05-27T23:01:36;4.45;;;1.88;;
46365;SDS011;32073;49.166;8.076;2023-05-27T23:05:36;4.93;;;2.00;;
46365;SDS011;32073;49.166;8.076;2023-05-27T23:09:37;4.05;;;1.83;;
46365;SDS011;32073;49.166;8.076;2023-05-27T23:13:38;6.22;;;1.48;;
46365;SDS011;32073;49.166;8.076;2023-05-27T23:17:38;4.40;;;1.35;;
46365;SDS011;32073;49.166;8.076;2023-05-27T23:21:39;3.92;;;1.90;;
46365;SDS011;32073;49.166;8.076;2023-05-27T23:25:40;5.45;;;1.70;;
46365;SDS011;32073;49.166;8.076;2023-05-27T23:29:41;6.10;;;2.13;;
46365;SDS011;32073;49.166;8.076;2023-05-27T23:33:41;3.55;;;1.90;;
46365;SDS011;32073;49.166;8.076;2023-05-27T23:37:42;4.28;;;1.70;;
46365;SDS011;32073;49.166;8.076;2023-05-27T23:41:43;4.68;;;2.00;;
46365;SDS011;32073;49.166;8.076;2023-05-27T23:45:43;3.97;;;1.85;;
46365;SDS011;32073;49.166;8.076;2023-05-27T23:49:44;6.47;;;1.95;;
46365;SDS011;32073;49.166;8.076;2023-05-27T23:53:45;4.20;;;1.88;;
46365;SDS011;32073;49.166;8.076;2023-05-27T23:57:45;6.25;;;1.70;;
